createdAt,value
2022-10-24T00:01:37.199Z,25.67
2022-10-24T00:06:38.917Z,25.80
2022-10-24T00:09:06.910Z,26.90
2022-10-24T00:11:35.854Z,25.77
2022-10-24T00:14:04.318Z,25.00
2022-10-24T00:16:33.709Z,27.38
2022-10-24T00:19:01.736Z,23.25
2022-10-24T00:21:29.805Z,26.35
2022-10-24T00:23:57.832Z,25.42
2022-10-24T00:26:25.846Z,27.15
2022-10-24T00:28:53.948Z,25.67
2022-10-24T00:31:22.083Z,26.75
2022-10-24T00:33:51.521Z,24.70
2022-10-24T00:36:21.575Z,28.10
2022-10-24T00:38:50.448Z,26.55
2022-10-24T00:41:20.298Z,25.52
2022-10-24T00:43:48.869Z,26.00
2022-10-24T00:46:19.191Z,23.70
2022-10-24T00:48:49.616Z,26.05
2022-10-24T00:51:24.782Z,28.40
2022-10-24T00:56:33.561Z,26.75
2022-10-24T00:59:04.493Z,28.40
2022-10-24T01:01:34.179Z,28.70
2022-10-24T01:04:02.336Z,26.10
2022-10-24T01:06:55.569Z,25.83
2022-10-24T01:09:46.033Z,29.33
2022-10-24T01:12:28.069Z,26.65
2022-10-24T01:15:10.695Z,29.67
2022-10-24T01:17:46.463Z,31.75
2022-10-24T01:20:39.758Z,30.67
2022-10-24T01:23:30.086Z,26.08
2022-10-24T01:26:11.153Z,25.67
2022-10-24T01:28:50.351Z,26.80
2022-10-24T01:31:28.713Z,26.90
2022-10-24T01:34:01.086Z,25.65
2022-10-24T01:36:38.005Z,28.23
2022-10-24T01:39:12.462Z,29.88
2022-10-24T01:41:43.249Z,26.70
2022-10-24T01:44:16.276Z,26.08
2022-10-24T01:46:52.609Z,29.50
2022-10-24T01:49:23.805Z,29.17
2022-10-24T01:51:55.777Z,25.08
2022-10-24T01:54:24.368Z,26.40
2022-10-24T01:56:52.997Z,26.25
2022-10-24T01:59:43.191Z,27.08
2022-10-24T02:02:17.431Z,26.48
2022-10-24T02:04:49.527Z,29.23
2022-10-24T02:07:20.573Z,26.98
2022-10-24T02:09:52.257Z,26.75
2022-10-24T02:12:22.472Z,29.77
2022-10-24T02:14:54.991Z,25.23
2022-10-24T02:17:24.551Z,26.73
2022-10-24T02:19:52.817Z,34.20
2022-10-24T02:22:27.865Z,30.85
2022-10-24T02:25:01.593Z,24.27
2022-10-24T02:27:35.547Z,29.25
2022-10-24T02:30:07.873Z,30.27
2022-10-24T02:32:40.081Z,28.63
2022-10-24T02:35:11.235Z,31.33
2022-10-24T02:37:44.511Z,24.60
2022-10-24T02:40:15.644Z,31.10
2022-10-24T02:42:45.899Z,28.27
2022-10-24T02:45:15.946Z,29.70
2022-10-24T02:47:47.127Z,27.38
2022-10-24T02:50:15.533Z,26.63
2022-10-24T02:52:45.047Z,27.40
2022-10-24T02:55:13.361Z,27.48
2022-10-24T02:57:41.390Z,29.23
2022-10-24T03:00:10.735Z,30.90
2022-10-24T03:02:39.012Z,25.83
2022-10-24T03:05:09.159Z,29.67
2022-10-24T03:07:37.357Z,27.60
2022-10-24T03:10:06.160Z,33.50
2022-10-24T03:12:34.207Z,30.85
2022-10-24T03:15:02.245Z,30.10
2022-10-24T03:17:30.254Z,30.42
2022-10-24T03:19:58.347Z,27.40
2022-10-24T03:22:30.640Z,29.65
2022-10-24T03:27:30.064Z,25.75
2022-10-24T03:29:58.506Z,28.98
2022-10-24T03:34:59.440Z,27.33
2022-10-24T03:37:29.301Z,24.42
2022-10-24T03:39:57.485Z,26.25
2022-10-24T03:42:25.539Z,30.20
2022-10-24T03:44:53.590Z,27.60
2022-10-24T03:47:21.681Z,26.00
2022-10-24T03:49:49.699Z,25.75
2022-10-24T03:52:18.324Z,26.25
2022-10-24T03:54:47.719Z,29.27
2022-10-24T03:57:15.960Z,27.50
2022-10-24T03:59:44.108Z,28.23
2022-10-24T04:02:13.562Z,26.27
2022-10-24T04:04:42.156Z,31.33
2022-10-24T04:07:10.146Z,26.15
2022-10-24T04:09:38.248Z,29.10
2022-10-24T04:12:08.131Z,26.27
2022-10-24T04:14:36.410Z,28.77
2022-10-24T04:17:04.607Z,29.60
2022-10-24T04:19:33.230Z,33.53
2022-10-24T04:22:01.434Z,30.33
2022-10-24T04:24:29.566Z,31.35
2022-10-24T04:26:58.506Z,29.83
2022-10-24T04:29:27.972Z,30.05
2022-10-24T04:31:56.190Z,30.67
2022-10-24T04:34:24.395Z,29.95
2022-10-24T04:36:52.406Z,31.08
2022-10-24T04:39:20.910Z,32.13
2022-10-24T04:41:48.908Z,35.67
2022-10-24T04:44:16.877Z,35.97
2022-10-24T04:46:50.547Z,33.55
2022-10-24T04:49:19.733Z,32.90
2022-10-24T04:51:47.829Z,34.10
2022-10-24T04:54:15.818Z,39.42
2022-10-24T04:56:43.873Z,36.10
2022-10-24T04:59:11.908Z,36.75
2022-10-24T05:01:39.975Z,37.50
2022-10-24T05:04:21.063Z,41.97
2022-10-24T05:06:49.059Z,37.70
2022-10-24T05:09:17.093Z,39.00
2022-10-24T05:11:45.155Z,37.45
2022-10-24T05:14:14.288Z,35.88
2022-10-24T05:16:42.355Z,38.50
2022-10-24T05:19:10.353Z,39.95
2022-10-24T05:21:39.713Z,40.13
2022-10-24T05:24:07.944Z,39.40
2022-10-24T05:26:36.081Z,40.50
2022-10-24T05:29:04.109Z,42.30
2022-10-24T05:34:05.036Z,43.78
2022-10-24T05:36:33.093Z,41.17
2022-10-24T05:39:02.488Z,42.50
2022-10-24T05:41:30.570Z,56.17
2022-10-24T05:43:58.628Z,47.47
2022-10-24T05:46:26.678Z,48.40
2022-10-24T05:48:54.816Z,52.33
2022-10-24T05:51:22.942Z,50.55
2022-10-24T05:53:50.996Z,45.42
2022-10-24T05:56:20.387Z,53.88
2022-10-24T05:58:48.389Z,49.05
2022-10-24T06:01:16.403Z,43.85
2022-10-24T06:03:44.926Z,45.72
2022-10-24T06:06:12.982Z,45.35
2022-10-24T06:08:40.979Z,53.28
2022-10-24T06:11:10.851Z,45.00
2022-10-24T06:13:40.424Z,45.17
2022-10-24T06:16:09.421Z,49.10
2022-10-24T06:18:38.284Z,50.33
2022-10-24T06:21:08.288Z,52.97
2022-10-24T06:23:36.422Z,52.78
2022-10-24T06:26:10.184Z,49.83
2022-10-24T06:28:38.458Z,52.20
2022-10-24T06:31:08.684Z,51.38
2022-10-24T06:33:36.845Z,56.38
2022-10-24T06:36:09.460Z,54.40
2022-10-24T06:41:10.122Z,49.50
2022-10-24T06:46:09.247Z,60.22
2022-10-24T06:48:38.437Z,65.38
2022-10-24T06:51:07.229Z,71.85
2022-10-24T06:53:35.404Z,78.20
2022-10-24T06:56:04.034Z,69.22
2022-10-24T06:58:33.674Z,70.95
2022-10-24T07:01:03.896Z,73.80
2022-10-24T07:03:33.508Z,64.95
2022-10-24T07:06:06.353Z,69.95
2022-10-24T07:08:34.337Z,71.00
2022-10-24T07:11:02.322Z,65.63
2022-10-24T07:13:30.494Z,65.07
2022-10-24T07:15:58.522Z,76.00
2022-10-24T07:18:26.880Z,68.63
2022-10-24T07:20:56.259Z,63.65
2022-10-24T07:23:24.235Z,73.13
2022-10-24T07:25:52.892Z,78.80
2022-10-24T07:28:20.996Z,80.13
2022-10-24T07:30:48.987Z,82.22
2022-10-24T07:33:20.030Z,88.03
2022-10-24T07:35:48.031Z,79.45
2022-10-24T07:38:18.937Z,76.85
2022-10-24T07:40:47.425Z,71.95
2022-10-24T07:43:16.062Z,81.50
2022-10-24T07:45:49.008Z,81.72
2022-10-24T07:48:20.481Z,89.65
2022-10-24T07:50:49.973Z,95.90
2022-10-24T07:53:19.419Z,96.75
2022-10-24T07:55:47.523Z,91.60
2022-10-24T07:58:15.621Z,108.57
2022-10-24T08:00:45.417Z,93.35
2022-10-24T08:03:13.838Z,92.15
2022-10-24T08:05:42.612Z,90.22
2022-10-24T08:08:27.581Z,92.78
2022-10-24T08:13:29.664Z,89.30
2022-10-24T08:15:57.773Z,87.53
2022-10-24T08:18:26.861Z,90.40
2022-10-24T08:21:00.814Z,100.05
2022-10-24T08:23:29.138Z,87.72
2022-10-24T08:25:57.117Z,86.15
2022-10-24T08:28:26.722Z,77.30
2022-10-24T08:30:59.234Z,89.63
2022-10-24T08:33:27.623Z,92.97
2022-10-24T08:35:59.370Z,92.50
2022-10-24T08:38:27.825Z,91.53
2022-10-24T08:40:56.289Z,74.60
2022-10-24T08:43:26.673Z,81.07
2022-10-24T08:46:04.715Z,82.82
2022-10-24T08:48:39.006Z,75.82
2022-10-24T08:51:18.878Z,87.22
2022-10-24T08:53:50.365Z,71.18
2022-10-24T08:56:18.573Z,72.55
2022-10-24T08:58:48.338Z,74.72
2022-10-24T09:01:26.094Z,71.88
2022-10-24T09:03:56.860Z,79.70
2022-10-24T09:06:27.395Z,82.78
2022-10-24T09:08:58.372Z,74.60
2022-10-24T09:11:38.088Z,73.85
2022-10-24T09:14:14.861Z,71.15
2022-10-24T09:16:44.296Z,71.05
2022-10-24T09:19:16.287Z,75.38
2022-10-24T09:21:45.989Z,74.50
2022-10-24T09:24:25.950Z,64.13
2022-10-24T09:26:54.204Z,58.97
2022-10-24T09:29:24.131Z,68.50
2022-10-24T09:31:52.209Z,61.40
2022-10-24T09:34:20.319Z,55.47
2022-10-24T09:36:48.560Z,72.35
2022-10-24T09:39:34.807Z,56.75
2022-10-24T09:42:04.941Z,69.47
2022-10-24T09:44:41.218Z,58.90
2022-10-24T09:47:25.165Z,69.20
2022-10-24T09:49:53.988Z,65.05
2022-10-24T09:52:23.987Z,76.57
2022-10-24T09:55:13.338Z,69.20
2022-10-24T09:57:42.148Z,78.25
2022-10-24T10:00:27.817Z,99.25
2022-10-24T10:03:02.198Z,76.50
2022-10-24T10:05:43.561Z,85.47
2022-10-24T10:08:17.656Z,82.72
2022-10-24T10:11:00.444Z,83.68
2022-10-24T10:13:29.466Z,79.88
2022-10-24T10:16:01.152Z,79.03
2022-10-24T10:18:36.285Z,86.77
2022-10-24T10:21:11.653Z,76.93
2022-10-24T10:23:42.957Z,81.30
2022-10-24T10:26:27.476Z,69.90
2022-10-24T10:29:01.876Z,67.72
2022-10-24T10:31:39.023Z,68.80
2022-10-24T10:34:20.276Z,62.97
2022-10-24T10:37:04.088Z,69.93
2022-10-24T10:39:58.781Z,69.60
2022-10-24T10:42:36.295Z,74.10
2022-10-24T10:45:17.656Z,61.95
2022-10-24T10:48:00.291Z,76.72
2022-10-24T10:50:35.020Z,69.70
2022-10-24T10:53:12.457Z,66.53
2022-10-24T10:55:49.173Z,72.13
2022-10-24T10:58:30.338Z,70.60
2022-10-24T11:01:07.845Z,61.00
2022-10-24T11:03:41.718Z,64.68
2022-10-24T11:06:22.330Z,69.22
2022-10-24T11:09:24.283Z,56.30
2022-10-24T11:11:59.551Z,65.15
2022-10-24T11:14:32.649Z,64.28
2022-10-24T11:17:10.918Z,57.80
2022-10-24T11:19:52.269Z,57.55
2022-10-24T11:22:24.816Z,51.85
2022-10-24T11:24:59.249Z,61.17
2022-10-24T11:27:33.362Z,55.83
2022-10-24T11:30:07.597Z,56.17
2022-10-24T11:32:40.902Z,59.83
2022-10-24T11:35:23.016Z,55.53
2022-10-24T11:37:55.530Z,61.63
2022-10-24T11:40:25.767Z,61.65
2022-10-24T11:42:59.903Z,50.60
2022-10-24T11:45:32.712Z,42.78
2022-10-24T11:50:40.534Z,43.92
2022-10-24T11:53:20.747Z,48.72
2022-10-24T11:55:54.451Z,49.03
2022-10-24T11:58:25.122Z,54.50
2022-10-24T12:01:16.056Z,45.72
2022-10-24T12:04:03.720Z,43.90
2022-10-24T12:06:56.416Z,45.10
2022-10-24T12:09:38.508Z,40.58
2022-10-24T12:12:38.919Z,39.00
2022-10-24T12:15:23.530Z,40.63
2022-10-24T12:18:09.675Z,40.28
2022-10-24T12:20:39.284Z,40.33
2022-10-24T12:23:09.346Z,36.33
2022-10-24T12:25:38.929Z,44.20
2022-10-24T12:28:11.675Z,40.80
2022-10-24T12:30:39.875Z,53.15
2022-10-24T12:33:26.983Z,49.55
2022-10-24T12:35:57.442Z,45.03
2022-10-24T12:39:08.557Z,48.78
2022-10-24T12:41:48.352Z,44.65
2022-10-24T12:44:47.315Z,43.70
2022-10-24T12:47:36.576Z,44.00
2022-10-24T12:50:42.114Z,48.35
2022-10-24T12:53:34.135Z,48.15
2022-10-24T12:56:22.553Z,44.95
2022-10-24T12:59:17.803Z,37.10
2022-10-24T13:01:47.240Z,47.67
2022-10-24T13:04:53.748Z,41.95
2022-10-24T13:07:51.105Z,46.63
2022-10-24T13:10:37.749Z,48.63
2022-10-24T13:13:31.011Z,43.10
2022-10-24T13:16:08.135Z,39.40
2022-10-24T13:18:59.810Z,49.85
2022-10-24T13:21:31.229Z,48.53
2022-10-24T13:24:14.059Z,41.78
2022-10-24T13:29:17.161Z,41.67
2022-10-24T13:31:49.658Z,45.22
2022-10-24T13:34:31.555Z,41.95
2022-10-24T13:37:03.777Z,44.60
2022-10-24T13:39:39.408Z,42.72
2022-10-24T13:42:22.000Z,45.28
2022-10-24T13:44:53.942Z,40.50
2022-10-24T13:47:27.117Z,39.55
2022-10-24T13:50:00.079Z,45.78
2022-10-24T13:52:34.701Z,41.63
2022-10-24T13:55:14.540Z,46.30
2022-10-24T13:57:52.710Z,47.15
2022-10-24T14:00:23.578Z,45.60
2022-10-24T14:02:53.823Z,41.45
2022-10-24T14:05:31.440Z,42.28
2022-10-24T14:08:01.074Z,46.05
2022-10-24T14:10:29.689Z,43.90
2022-10-24T14:12:58.407Z,38.85
2022-10-24T14:15:29.646Z,50.50
2022-10-24T14:18:01.743Z,48.97
2022-10-24T14:20:32.286Z,44.40
2022-10-24T14:23:00.693Z,46.85
2022-10-24T14:25:33.258Z,44.00
2022-10-24T14:30:34.469Z,39.33
2022-10-24T14:33:22.776Z,42.75
2022-10-24T14:35:55.213Z,45.88
2022-10-24T14:38:27.353Z,41.88
2022-10-24T14:41:07.913Z,53.42
2022-10-24T14:43:40.041Z,53.80
2022-10-24T14:46:30.720Z,50.75
2022-10-24T14:49:21.808Z,49.05
2022-10-24T14:54:23.252Z,42.25
2022-10-24T14:56:53.754Z,52.47
2022-10-24T14:59:26.491Z,58.47
2022-10-24T15:01:59.397Z,49.55
2022-10-24T15:04:37.740Z,46.88
2022-10-24T15:07:20.963Z,51.42
2022-10-24T15:09:56.801Z,53.75
2022-10-24T15:12:33.773Z,62.13
2022-10-24T15:15:22.863Z,42.13
2022-10-24T15:17:52.251Z,59.05
2022-10-24T15:20:28.636Z,54.65
2022-10-24T15:22:59.721Z,51.22
2022-10-24T15:25:30.859Z,60.42
2022-10-24T15:28:00.602Z,51.55
2022-10-24T15:30:30.532Z,58.50
2022-10-24T15:33:01.203Z,56.40
2022-10-24T15:35:35.141Z,50.00
2022-10-24T15:38:06.359Z,58.45
2022-10-24T15:40:36.090Z,46.22
2022-10-24T15:43:04.449Z,49.90
2022-10-24T15:45:32.573Z,47.08
2022-10-24T15:48:00.619Z,50.53
2022-10-24T15:50:30.273Z,47.70
2022-10-24T15:52:59.675Z,62.08
2022-10-24T15:55:29.548Z,46.83
2022-10-24T15:57:59.933Z,43.30
2022-10-24T16:00:28.096Z,44.45
2022-10-24T16:03:00.884Z,41.65
2022-10-24T16:05:36.574Z,56.80
2022-10-24T16:08:04.933Z,47.75
2022-10-24T16:10:33.006Z,50.63
2022-10-24T16:13:01.008Z,48.67
2022-10-24T16:18:05.496Z,55.70
2022-10-24T16:20:35.372Z,58.15
2022-10-24T16:23:04.533Z,54.00
2022-10-24T16:25:35.983Z,50.88
2022-10-24T16:28:05.334Z,49.72
2022-10-24T16:30:35.604Z,49.22
2022-10-24T16:33:04.458Z,52.45
2022-10-24T16:35:36.358Z,49.15
2022-10-24T16:38:06.122Z,50.17
2022-10-24T16:43:09.818Z,51.33
2022-10-24T16:45:38.375Z,40.22
2022-10-24T16:48:06.780Z,43.75
2022-10-24T16:50:36.888Z,40.40
2022-10-24T16:53:07.954Z,37.67
2022-10-24T16:55:36.654Z,40.30
2022-10-24T16:58:04.906Z,43.72
2022-10-24T17:00:33.479Z,43.15
2022-10-24T17:03:03.601Z,42.22
2022-10-24T17:05:33.074Z,43.03
2022-10-24T17:08:02.978Z,44.60
2022-10-24T17:10:31.636Z,43.53
2022-10-24T17:13:01.431Z,40.28
2022-10-24T17:15:30.456Z,45.08
2022-10-24T17:17:58.968Z,38.20
2022-10-24T17:20:36.851Z,44.83
2022-10-24T17:23:07.136Z,42.47
2022-10-24T17:25:36.172Z,45.83
2022-10-24T17:28:05.346Z,45.42
2022-10-24T17:30:34.346Z,43.05
2022-10-24T17:33:05.495Z,47.15
2022-10-24T17:35:38.176Z,38.08
2022-10-24T17:40:47.045Z,44.28
2022-10-24T17:43:21.629Z,48.33
2022-10-24T17:45:51.221Z,44.35
2022-10-24T17:48:24.161Z,45.20
2022-10-24T17:50:53.537Z,41.55
2022-10-24T17:53:23.298Z,45.42
2022-10-24T17:55:51.807Z,45.70
2022-10-24T17:58:19.934Z,38.50
2022-10-24T18:00:48.635Z,40.85
2022-10-24T18:03:17.219Z,39.33
2022-10-24T18:05:54.427Z,48.15
2022-10-24T18:08:24.317Z,48.17
2022-10-24T18:10:53.077Z,49.72
2022-10-24T18:13:21.592Z,59.78
2022-10-24T18:15:50.111Z,57.05
2022-10-24T18:18:20.831Z,60.63
2022-10-24T18:20:48.966Z,56.78
2022-10-24T18:23:17.473Z,71.95
2022-10-24T18:25:47.380Z,70.72
2022-10-24T18:28:16.139Z,68.75
2022-10-24T18:30:44.607Z,69.38
2022-10-24T18:33:14.590Z,69.65
2022-10-24T18:35:43.140Z,75.65
2022-10-24T18:38:13.344Z,76.78
2022-10-24T18:40:42.358Z,79.57
2022-10-24T18:43:13.942Z,83.03
2022-10-24T18:45:43.469Z,75.55
2022-10-24T18:48:12.858Z,74.82
2022-10-24T18:50:41.897Z,70.07
2022-10-24T18:53:23.699Z,79.05
2022-10-24T18:55:53.332Z,87.25
2022-10-24T18:58:24.912Z,83.45
2022-10-24T19:00:55.790Z,81.50
2022-10-24T19:03:30.001Z,85.93
2022-10-24T19:06:04.046Z,78.50
2022-10-24T19:08:32.763Z,84.07
2022-10-24T19:11:01.620Z,97.80
2022-10-24T19:13:32.572Z,70.07
2022-10-24T19:16:05.569Z,87.35
2022-10-24T19:18:37.272Z,67.63
2022-10-24T19:21:06.219Z,76.28
2022-10-24T19:23:34.838Z,92.20
2022-10-24T19:26:03.439Z,88.18
2022-10-24T19:28:34.970Z,71.68
2022-10-24T19:31:05.653Z,87.55
2022-10-24T19:33:34.187Z,74.40
2022-10-24T19:36:04.247Z,63.00
2022-10-24T19:38:33.067Z,89.55
2022-10-24T19:41:01.947Z,77.28
2022-10-24T19:43:32.670Z,76.97
2022-10-24T19:46:18.384Z,91.70
2022-10-24T19:48:49.721Z,76.35
2022-10-24T19:51:20.653Z,80.97
2022-10-24T19:53:50.057Z,79.20
2022-10-24T19:56:23.902Z,89.25
2022-10-24T19:58:54.306Z,90.03
2022-10-24T20:01:28.234Z,75.68
2022-10-24T20:03:58.360Z,100.13
2022-10-24T20:06:27.582Z,98.45
2022-10-24T20:08:57.272Z,85.82
2022-10-24T20:11:27.353Z,79.70
2022-10-24T20:13:55.882Z,77.53
2022-10-24T20:16:25.855Z,72.03
2022-10-24T20:18:54.164Z,71.97
2022-10-24T20:21:22.405Z,85.78
2022-10-24T20:23:50.890Z,76.63
2022-10-24T20:26:21.057Z,96.50
2022-10-24T20:28:51.236Z,81.80
2022-10-24T20:31:21.378Z,82.10
2022-10-24T20:33:55.317Z,85.50
2022-10-24T20:36:23.432Z,74.40
2022-10-24T20:38:52.136Z,87.43
2022-10-24T20:41:20.752Z,79.10
2022-10-24T20:43:50.591Z,93.43
2022-10-24T20:46:18.618Z,85.22
2022-10-24T20:48:46.974Z,74.55
2022-10-24T20:51:18.639Z,76.90
2022-10-24T20:53:46.898Z,74.07
2022-10-24T20:56:16.929Z,72.80
2022-10-24T20:58:46.538Z,86.40
2022-10-24T21:01:16.208Z,76.47
2022-10-24T21:03:45.426Z,78.57
2022-10-24T21:06:19.747Z,83.30
2022-10-24T21:08:50.071Z,74.65
2022-10-24T21:11:25.072Z,74.72
2022-10-24T21:13:54.977Z,65.38
2022-10-24T21:16:23.947Z,66.18
2022-10-24T21:18:52.267Z,67.82
2022-10-24T21:21:22.646Z,65.20
2022-10-24T21:23:52.123Z,78.30
2022-10-24T21:26:20.538Z,80.38
2022-10-24T21:28:49.070Z,72.05
2022-10-24T21:31:18.977Z,60.50
2022-10-24T21:33:47.261Z,78.05
2022-10-24T21:36:16.744Z,106.07
2022-10-24T21:38:49.846Z,98.40
2022-10-24T21:41:18.593Z,100.85
2022-10-24T21:43:47.206Z,100.07
2022-10-24T21:46:16.632Z,86.47
2022-10-24T21:48:45.458Z,94.90
2022-10-24T21:51:16.304Z,107.47
2022-10-24T21:53:46.805Z,117.70
2022-10-24T21:56:19.043Z,118.32
2022-10-24T21:58:48.293Z,110.35
2022-10-24T22:01:18.820Z,111.32
2022-10-24T22:03:47.455Z,91.57
2022-10-24T22:06:17.066Z,85.18
2022-10-24T22:08:46.135Z,94.22
2022-10-24T22:11:18.807Z,92.38
2022-10-24T22:16:18.622Z,106.43
2022-10-24T22:18:47.991Z,107.53
2022-10-24T22:21:25.471Z,89.32
2022-10-24T22:23:56.089Z,79.35
2022-10-24T22:26:26.119Z,76.72
2022-10-24T22:28:55.868Z,78.03
2022-10-24T22:31:25.391Z,78.15
2022-10-24T22:33:54.241Z,73.85
2022-10-24T22:36:38.851Z,76.57
2022-10-24T22:39:14.638Z,84.90
2022-10-24T22:41:45.027Z,99.38
2022-10-24T22:44:15.078Z,78.70
2022-10-24T22:46:59.728Z,74.68
2022-10-24T22:49:37.356Z,102.70
2022-10-24T22:52:06.280Z,107.88
2022-10-24T22:54:36.716Z,122.07
2022-10-24T22:57:07.323Z,111.93
2022-10-24T22:59:35.957Z,120.15
2022-10-24T23:02:08.710Z,119.93
2022-10-24T23:04:43.019Z,107.57
2022-10-24T23:07:23.763Z,98.20
2022-10-24T23:09:54.659Z,94.47
2022-10-24T23:12:24.808Z,84.72
2022-10-24T23:14:53.768Z,91.65
2022-10-24T23:17:26.574Z,93.88
2022-10-24T23:19:56.242Z,105.07
2022-10-24T23:22:26.202Z,93.50
2022-10-24T23:24:56.486Z,103.65
2022-10-24T23:27:32.850Z,94.50
2022-10-24T23:30:02.529Z,94.32
2022-10-24T23:32:32.564Z,90.13
2022-10-24T23:35:01.574Z,82.38
2022-10-24T23:37:35.080Z,94.43
2022-10-24T23:40:07.842Z,107.43
2022-10-24T23:42:37.992Z,99.97
2022-10-24T23:45:07.235Z,94.18
2022-10-24T23:48:06.199Z,94.25
2022-10-24T23:50:39.672Z,97.45
2022-10-24T23:53:20.856Z,70.97
2022-10-24T23:55:49.671Z,77.95
2022-10-24T23:58:19.193Z,78.03
